aviador You're here:

KPRN Decoded Metar

in _UNIDENTIFIED
Report Time2017-06-28 11:56:00
UTC Time2017-06-28 12:05:55
Flight Rules vfr VFR
WindCalm
Visibility9999 m
Phenomena:N/A
Clouds:N/A
Expected CloudBase > 1,600 ft AGL from Temp-Dew spread
CeilingNone
Temp21°C (ISA +7)
Dew Point17°C (78% RH)
QNH1018 hPa
Density Alt1,348 ft
Elevation453 ft
Report Wrong Elevation
Raw Report
KPRN 281156Z AUTO 00000KT 10SM CLR 21/17 A3007 RMK AO2 SLP176
T02110172 10217 20194 51010 $=

Extra information for KPRN:More info

Metar Taf Metar & Taf Last 4 Metars F.Rules Stats Wind Profile Meteogram Temp Stats Metar ALERT Operation Metar Decoded Social comments